sensor_id;sensor_type;location;lat;lon;timestamp;P1;durP1;ratioP1;P2;durP2;ratioP2
2656;SDS011;1338;48.176;11.792;2024-01-30T00:00:07;13.37;;;10.40;;
2656;SDS011;1338;48.176;11.792;2024-01-30T00:02:41;11.80;;;10.60;;
2656;SDS011;1338;48.176;11.792;2024-01-30T00:05:12;12.17;;;10.97;;
2656;SDS011;1338;48.176;11.792;2024-01-30T00:07:42;11.47;;;9.50;;
2656;SDS011;1338;48.176;11.792;2024-01-30T00:10:14;10.93;;;9.53;;
2656;SDS011;1338;48.176;11.792;2024-01-30T00:12:44;13.47;;;10.40;;
2656;SDS011;1338;48.176;11.792;2024-01-30T00:15:12;14.77;;;9.00;;
2656;SDS011;1338;48.176;11.792;2024-01-30T00:17:44;10.70;;;8.50;;
2656;SDS011;1338;48.176;11.792;2024-01-30T00:20:12;10.77;;;7.93;;
2656;SDS011;1338;48.176;11.792;2024-01-30T00:22:43;9.87;;;7.83;;
2656;SDS011;1338;48.176;11.792;2024-01-30T00:25:12;8.73;;;7.83;;
2656;SDS011;1338;48.176;11.792;2024-01-30T00:27:41;8.50;;;7.63;;
2656;SDS011;1338;48.176;11.792;2024-01-30T00:30:11;8.60;;;7.40;;
2656;SDS011;1338;48.176;11.792;2024-01-30T00:32:41;11.37;;;8.30;;
2656;SDS011;1338;48.176;11.792;2024-01-30T00:35:12;10.10;;;8.57;;
2656;SDS011;1338;48.176;11.792;2024-01-30T00:37:41;11.37;;;8.30;;
2656;SDS011;1338;48.176;11.792;2024-01-30T00:40:12;9.57;;;8.57;;
2656;SDS011;1338;48.176;11.792;2024-01-30T00:42:42;10.73;;;9.63;;
2656;SDS011;1338;48.176;11.792;2024-01-30T00:45:13;13.80;;;8.87;;
2656;SDS011;1338;48.176;11.792;2024-01-30T00:47:46;10.30;;;8.27;;
2656;SDS011;1338;48.176;11.792;2024-01-30T00:50:15;9.13;;;8.20;;
2656;SDS011;1338;48.176;11.792;2024-01-30T00:52:44;9.13;;;7.80;;
2656;SDS011;1338;48.176;11.792;2024-01-30T00:55:13;8.43;;;7.63;;
2656;SDS011;1338;48.176;11.792;2024-01-30T00:57:43;8.70;;;8.00;;
2656;SDS011;1338;48.176;11.792;2024-01-30T01:00:12;9.53;;;8.03;;
2656;SDS011;1338;48.176;11.792;2024-01-30T01:02:44;8.60;;;7.50;;
2656;SDS011;1338;48.176;11.792;2024-01-30T01:05:14;8.40;;;7.60;;
2656;SDS011;1338;48.176;11.792;2024-01-30T01:07:43;10.73;;;8.13;;
2656;SDS011;1338;48.176;11.792;2024-01-30T01:10:14;8.00;;;7.20;;
2656;SDS011;1338;48.176;11.792;2024-01-30T01:12:43;9.53;;;7.53;;
2656;SDS011;1338;48.176;11.792;2024-01-30T01:15:14;8.90;;;7.63;;
2656;SDS011;1338;48.176;11.792;2024-01-30T01:17:43;9.63;;;7.60;;
2656;SDS011;1338;48.176;11.792;2024-01-30T01:20:14;7.57;;;6.73;;
2656;SDS011;1338;48.176;11.792;2024-01-30T01:22:44;8.73;;;7.03;;
2656;SDS011;1338;48.176;11.792;2024-01-30T01:25:13;9.17;;;7.10;;
2656;SDS011;1338;48.176;11.792;2024-01-30T01:27:43;8.50;;;7.20;;
2656;SDS011;1338;48.176;11.792;2024-01-30T01:30:18;9.17;;;7.53;;
2656;SDS011;1338;48.176;11.792;2024-01-30T01:32:48;8.40;;;7.30;;
2656;SDS011;1338;48.176;11.792;2024-01-30T01:35:23;8.10;;;7.40;;
2656;SDS011;1338;48.176;11.792;2024-01-30T01:37:55;9.17;;;7.27;;
2656;SDS011;1338;48.176;11.792;2024-01-30T01:40:27;8.20;;;7.23;;
2656;SDS011;1338;48.176;11.792;2024-01-30T01:42:56;9.27;;;7.43;;
2656;SDS011;1338;48.176;11.792;2024-01-30T01:45:25;9.03;;;7.67;;
2656;SDS011;1338;48.176;11.792;2024-01-30T01:47:55;9.10;;;8.30;;
2656;SDS011;1338;48.176;11.792;2024-01-30T01:50:29;8.17;;;7.37;;
2656;SDS011;1338;48.176;11.792;2024-01-30T01:52:59;9.83;;;7.60;;
2656;SDS011;1338;48.176;11.792;2024-01-30T01:55:28;8.07;;;7.30;;
2656;SDS011;1338;48.176;11.792;2024-01-30T01:57:58;8.00;;;7.23;;
2656;SDS011;1338;48.176;11.792;2024-01-30T02:00:30;8.60;;;7.70;;
2656;SDS011;1338;48.176;11.792;2024-01-30T02:03:01;9.23;;;7.23;;
2656;SDS011;1338;48.176;11.792;2024-01-30T02:05:35;7.67;;;6.87;;
2656;SDS011;1338;48.176;11.792;2024-01-30T02:08:05;7.33;;;6.40;;
2656;SDS011;1338;48.176;11.792;2024-01-30T02:10:43;7.93;;;7.10;;
2656;SDS011;1338;48.176;11.792;2024-01-30T02:13:12;10.00;;;8.10;;
2656;SDS011;1338;48.176;11.792;2024-01-30T02:15:42;8.07;;;6.70;;
2656;SDS011;1338;48.176;11.792;2024-01-30T02:18:12;8.63;;;7.37;;
2656;SDS011;1338;48.176;11.792;2024-01-30T02:20:50;7.23;;;6.50;;
2656;SDS011;1338;48.176;11.792;2024-01-30T02:23:24;6.43;;;5.83;;
2656;SDS011;1338;48.176;11.792;2024-01-30T02:25:55;7.13;;;6.20;;
2656;SDS011;1338;48.176;11.792;2024-01-30T02:28:26;9.50;;;5.73;;
2656;SDS011;1338;48.176;11.792;2024-01-30T02:30:55;6.70;;;5.83;;
2656;SDS011;1338;48.176;11.792;2024-01-30T02:33:26;6.33;;;5.73;;
2656;SDS011;1338;48.176;11.792;2024-01-30T02:35:58;6.20;;;5.63;;
2656;SDS011;1338;48.176;11.792;2024-01-30T02:38:31;7.00;;;6.13;;
2656;SDS011;1338;48.176;11.792;2024-01-30T02:41:00;6.73;;;5.90;;
2656;SDS011;1338;48.176;11.792;2024-01-30T02:43:28;6.63;;;6.00;;
2656;SDS011;1338;48.176;11.792;2024-01-30T02:45:58;6.53;;;5.93;;
2656;SDS011;1338;48.176;11.792;2024-01-30T02:48:28;6.80;;;6.07;;
2656;SDS011;1338;48.176;11.792;2024-01-30T02:50:57;6.50;;;5.60;;
2656;SDS011;1338;48.176;11.792;2024-01-30T02:53:28;6.40;;;5.80;;
2656;SDS011;1338;48.176;11.792;2024-01-30T02:55:58;6.07;;;5.47;;
2656;SDS011;1338;48.176;11.792;2024-01-30T02:58:28;6.40;;;5.80;;
2656;SDS011;1338;48.176;11.792;2024-01-30T03:00:58;8.20;;;5.67;;
2656;SDS011;1338;48.176;11.792;2024-01-30T03:03:27;5.43;;;4.93;;
2656;SDS011;1338;48.176;11.792;2024-01-30T03:05:56;6.50;;;5.50;;
2656;SDS011;1338;48.176;11.792;2024-01-30T03:08:25;5.97;;;5.10;;
2656;SDS011;1338;48.176;11.792;2024-01-30T03:10:55;9.10;;;5.93;;
2656;SDS011;1338;48.176;11.792;2024-01-30T03:13:27;5.67;;;5.20;;
2656;SDS011;1338;48.176;11.792;2024-01-30T03:15:56;7.53;;;5.17;;
2656;SDS011;1338;48.176;11.792;2024-01-30T03:18:25;5.63;;;5.17;;
2656;SDS011;1338;48.176;11.792;2024-01-30T03:20:56;6.13;;;5.37;;
2656;SDS011;1338;48.176;11.792;2024-01-30T03:23:25;7.60;;;5.47;;
2656;SDS011;1338;48.176;11.792;2024-01-30T03:25:54;8.50;;;5.23;;
2656;SDS011;1338;48.176;11.792;2024-01-30T03:28:23;5.17;;;4.70;;
2656;SDS011;1338;48.176;11.792;2024-01-30T03:30:54;5.27;;;4.70;;
2656;SDS011;1338;48.176;11.792;2024-01-30T03:33:23;5.63;;;4.90;;
2656;SDS011;1338;48.176;11.792;2024-01-30T03:35:52;5.37;;;4.87;;
2656;SDS011;1338;48.176;11.792;2024-01-30T03:38:22;4.63;;;4.23;;
2656;SDS011;1338;48.176;11.792;2024-01-30T03:40:54;7.47;;;4.80;;
2656;SDS011;1338;48.176;11.792;2024-01-30T03:43:27;4.73;;;4.13;;
2656;SDS011;1338;48.176;11.792;2024-01-30T03:45:55;4.80;;;4.40;;
2656;SDS011;1338;48.176;11.792;2024-01-30T03:48:24;7.87;;;5.00;;
2656;SDS011;1338;48.176;11.792;2024-01-30T03:50:56;4.57;;;4.07;;
2656;SDS011;1338;48.176;11.792;2024-01-30T03:53:25;5.60;;;5.10;;
2656;SDS011;1338;48.176;11.792;2024-01-30T03:55:55;6.00;;;4.80;;
2656;SDS011;1338;48.176;11.792;2024-01-30T03:58:26;5.43;;;4.90;;
2656;SDS011;1338;48.176;11.792;2024-01-30T04:00:54;5.20;;;4.70;;
2656;SDS011;1338;48.176;11.792;2024-01-30T04:03:23;4.87;;;4.47;;
2656;SDS011;1338;48.176;11.792;2024-01-30T04:05:51;5.73;;;4.47;;
2656;SDS011;1338;48.176;11.792;2024-01-30T04:08:20;5.83;;;4.70;;
2656;SDS011;1338;48.176;11.792;2024-01-30T04:10:49;5.30;;;4.80;;
2656;SDS011;1338;48.176;11.792;2024-01-30T04:13:18;6.10;;;4.10;;
2656;SDS011;1338;48.176;11.792;2024-01-30T04:15:49;4.93;;;4.43;;
2656;SDS011;1338;48.176;11.792;2024-01-30T04:18:17;4.70;;;4.30;;
2656;SDS011;1338;48.176;11.792;2024-01-30T04:20:46;4.20;;;3.80;;
2656;SDS011;1338;48.176;11.792;2024-01-30T04:23:17;4.20;;;3.90;;
2656;SDS011;1338;48.176;11.792;2024-01-30T04:25:46;4.13;;;3.73;;
2656;SDS011;1338;48.176;11.792;2024-01-30T04:28:15;4.30;;;3.83;;
2656;SDS011;1338;48.176;11.792;2024-01-30T04:30:44;4.60;;;4.20;;
2656;SDS011;1338;48.176;11.792;2024-01-30T04:33:14;3.93;;;3.60;;
2656;SDS011;1338;48.176;11.792;2024-01-30T04:35:43;4.87;;;3.70;;
2656;SDS011;1338;48.176;11.792;2024-01-30T04:38:17;4.57;;;4.17;;
2656;SDS011;1338;48.176;11.792;2024-01-30T04:40:48;5.20;;;4.47;;
2656;SDS011;1338;48.176;11.792;2024-01-30T04:43:17;4.80;;;4.27;;
2656;SDS011;1338;48.176;11.792;2024-01-30T04:45:47;3.80;;;3.40;;
2656;SDS011;1338;48.176;11.792;2024-01-30T04:48:18;4.47;;;4.13;;
2656;SDS011;1338;48.176;11.792;2024-01-30T04:50:46;3.93;;;3.63;;
2656;SDS011;1338;48.176;11.792;2024-01-30T04:53:15;3.90;;;3.60;;
2656;SDS011;1338;48.176;11.792;2024-01-30T04:55:43;4.53;;;3.60;;
2656;SDS011;1338;48.176;11.792;2024-01-30T04:58:12;3.83;;;3.40;;
2656;SDS011;1338;48.176;11.792;2024-01-30T05:00:42;4.03;;;3.63;;
2656;SDS011;1338;48.176;11.792;2024-01-30T05:03:22;3.70;;;3.37;;
2656;SDS011;1338;48.176;11.792;2024-01-30T05:05:51;4.13;;;3.73;;
2656;SDS011;1338;48.176;11.792;2024-01-30T05:08:20;3.60;;;3.30;;
2656;SDS011;1338;48.176;11.792;2024-01-30T05:10:49;4.07;;;3.63;;
2656;SDS011;1338;48.176;11.792;2024-01-30T05:13:18;3.40;;;3.10;;
2656;SDS011;1338;48.176;11.792;2024-01-30T05:15:47;4.43;;;3.60;;
2656;SDS011;1338;48.176;11.792;2024-01-30T05:18:16;3.73;;;3.43;;
2656;SDS011;1338;48.176;11.792;2024-01-30T05:20:47;6.90;;;4.43;;
2656;SDS011;1338;48.176;11.792;2024-01-30T05:23:17;3.17;;;2.90;;
2656;SDS011;1338;48.176;11.792;2024-01-30T05:25:46;3.43;;;3.13;;
2656;SDS011;1338;48.176;11.792;2024-01-30T05:28:15;3.57;;;3.20;;
2656;SDS011;1338;48.176;11.792;2024-01-30T05:30:47;4.17;;;3.83;;
2656;SDS011;1338;48.176;11.792;2024-01-30T05:33:16;3.63;;;3.33;;
2656;SDS011;1338;48.176;11.792;2024-01-30T05:35:44;4.07;;;3.67;;
2656;SDS011;1338;48.176;11.792;2024-01-30T05:38:16;3.73;;;3.37;;
2656;SDS011;1338;48.176;11.792;2024-01-30T05:40:45;3.93;;;3.63;;
2656;SDS011;1338;48.176;11.792;2024-01-30T05:43:13;4.57;;;3.83;;
2656;SDS011;1338;48.176;11.792;2024-01-30T05:45:43;4.30;;;3.80;;
2656;SDS011;1338;48.176;11.792;2024-01-30T05:48:12;4.30;;;3.33;;
2656;SDS011;1338;48.176;11.792;2024-01-30T05:50:45;5.43;;;3.60;;
2656;SDS011;1338;48.176;11.792;2024-01-30T05:53:15;3.87;;;3.40;;
2656;SDS011;1338;48.176;11.792;2024-01-30T05:55:44;3.27;;;2.97;;
2656;SDS011;1338;48.176;11.792;2024-01-30T05:58:12;3.93;;;3.50;;
2656;SDS011;1338;48.176;11.792;2024-01-30T06:00:41;4.20;;;3.83;;
2656;SDS011;1338;48.176;11.792;2024-01-30T06:03:10;3.67;;;3.33;;
2656;SDS011;1338;48.176;11.792;2024-01-30T06:05:40;12.83;;;7.43;;
2656;SDS011;1338;48.176;11.792;2024-01-30T06:08:08;4.40;;;3.93;;
2656;SDS011;1338;48.176;11.792;2024-01-30T06:10:38;5.23;;;4.60;;
2656;SDS011;1338;48.176;11.792;2024-01-30T06:13:07;37.10;;;22.30;;
2656;SDS011;1338;48.176;11.792;2024-01-30T06:15:38;15.57;;;10.50;;
2656;SDS011;1338;48.176;11.792;2024-01-30T06:18:08;4.73;;;3.33;;
2656;SDS011;1338;48.176;11.792;2024-01-30T06:20:37;5.80;;;4.03;;
2656;SDS011;1338;48.176;11.792;2024-01-30T06:23:06;6.30;;;3.80;;
2656;SDS011;1338;48.176;11.792;2024-01-30T06:25:35;4.90;;;3.90;;
2656;SDS011;1338;48.176;11.792;2024-01-30T06:28:06;6.57;;;3.83;;
2656;SDS011;1338;48.176;11.792;2024-01-30T06:30:37;3.50;;;3.20;;
2656;SDS011;1338;48.176;11.792;2024-01-30T06:33:07;4.47;;;3.90;;
2656;SDS011;1338;48.176;11.792;2024-01-30T06:35:38;7.80;;;3.83;;
2656;SDS011;1338;48.176;11.792;2024-01-30T06:38:10;3.73;;;3.00;;
2656;SDS011;1338;48.176;11.792;2024-01-30T06:40:40;3.40;;;3.10;;
2656;SDS011;1338;48.176;11.792;2024-01-30T06:43:10;3.70;;;2.80;;
2656;SDS011;1338;48.176;11.792;2024-01-30T06:45:41;3.70;;;3.40;;
2656;SDS011;1338;48.176;11.792;2024-01-30T06:48:11;3.80;;;3.23;;
2656;SDS011;1338;48.176;11.792;2024-01-30T06:50:44;3.40;;;3.10;;
2656;SDS011;1338;48.176;11.792;2024-01-30T06:53:13;3.73;;;3.13;;
2656;SDS011;1338;48.176;11.792;2024-01-30T06:55:41;3.20;;;3.00;;
2656;SDS011;1338;48.176;11.792;2024-01-30T06:58:12;3.20;;;2.90;;
2656;SDS011;1338;48.176;11.792;2024-01-30T07:00:41;5.10;;;3.07;;
2656;SDS011;1338;48.176;11.792;2024-01-30T07:03:12;3.20;;;2.90;;
2656;SDS011;1338;48.176;11.792;2024-01-30T07:05:40;3.23;;;3.03;;
2656;SDS011;1338;48.176;11.792;2024-01-30T07:08:09;3.60;;;3.30;;
2656;SDS011;1338;48.176;11.792;2024-01-30T07:10:39;2.97;;;2.77;;
2656;SDS011;1338;48.176;11.792;2024-01-30T07:13:09;3.50;;;3.20;;
2656;SDS011;1338;48.176;11.792;2024-01-30T07:15:39;3.07;;;2.70;;
2656;SDS011;1338;48.176;11.792;2024-01-30T07:18:07;4.13;;;3.30;;
2656;SDS011;1338;48.176;11.792;2024-01-30T07:20:37;4.43;;;3.20;;
2656;SDS011;1338;48.176;11.792;2024-01-30T07:23:12;3.20;;;2.90;;
2656;SDS011;1338;48.176;11.792;2024-01-30T07:25:44;4.00;;;3.17;;
2656;SDS011;1338;48.176;11.792;2024-01-30T07:28:17;3.13;;;2.83;;
2656;SDS011;1338;48.176;11.792;2024-01-30T07:30:48;3.03;;;2.77;;
2656;SDS011;1338;48.176;11.792;2024-01-30T07:33:21;5.30;;;3.53;;
2656;SDS011;1338;48.176;11.792;2024-01-30T07:35:53;5.57;;;3.27;;
2656;SDS011;1338;48.176;11.792;2024-01-30T07:38:25;4.63;;;3.13;;
2656;SDS011;1338;48.176;11.792;2024-01-30T07:40:56;4.80;;;3.70;;
2656;SDS011;1338;48.176;11.792;2024-01-30T07:43:25;4.77;;;3.33;;
2656;SDS011;1338;48.176;11.792;2024-01-30T07:46:04;3.47;;;3.20;;
2656;SDS011;1338;48.176;11.792;2024-01-30T07:48:34;3.30;;;3.00;;
2656;SDS011;1338;48.176;11.792;2024-01-30T07:51:04;2.87;;;2.63;;
2656;SDS011;1338;48.176;11.792;2024-01-30T07:53:35;3.30;;;3.00;;
2656;SDS011;1338;48.176;11.792;2024-01-30T07:56:06;3.67;;;3.13;;
2656;SDS011;1338;48.176;11.792;2024-01-30T07:58:35;3.77;;;3.30;;
2656;SDS011;1338;48.176;11.792;2024-01-30T08:01:06;4.97;;;3.47;;
2656;SDS011;1338;48.176;11.792;2024-01-30T08:03:35;3.50;;;3.27;;
2656;SDS011;1338;48.176;11.792;2024-01-30T08:06:06;4.13;;;3.43;;
2656;SDS011;1338;48.176;11.792;2024-01-30T08:08:37;3.57;;;3.27;;
2656;SDS011;1338;48.176;11.792;2024-01-30T08:11:05;6.57;;;3.53;;
2656;SDS011;1338;48.176;11.792;2024-01-30T08:13:34;3.40;;;3.10;;
2656;SDS011;1338;48.176;11.792;2024-01-30T08:16:03;3.67;;;3.37;;
2656;SDS011;1338;48.176;11.792;2024-01-30T08:18:37;3.80;;;3.17;;
2656;SDS011;1338;48.176;11.792;2024-01-30T08:21:08;3.30;;;2.70;;
2656;SDS011;1338;48.176;11.792;2024-01-30T08:23:37;2.80;;;2.60;;
2656;SDS011;1338;48.176;11.792;2024-01-30T08:26:06;3.57;;;3.20;;
2656;SDS011;1338;48.176;11.792;2024-01-30T08:28:35;3.00;;;2.70;;
2656;SDS011;1338;48.176;11.792;2024-01-30T08:31:04;4.90;;;2.70;;
2656;SDS011;1338;48.176;11.792;2024-01-30T08:33:33;3.07;;;2.87;;
2656;SDS011;1338;48.176;11.792;2024-01-30T08:36:07;3.27;;;2.97;;
2656;SDS011;1338;48.176;11.792;2024-01-30T08:38:35;2.70;;;2.50;;
2656;SDS011;1338;48.176;11.792;2024-01-30T08:41:04;2.87;;;2.60;;
2656;SDS011;1338;48.176;11.792;2024-01-30T08:43:34;3.33;;;2.47;;
2656;SDS011;1338;48.176;11.792;2024-01-30T08:46:04;3.53;;;2.70;;
2656;SDS011;1338;48.176;11.792;2024-01-30T08:48:33;3.13;;;2.83;;
2656;SDS011;1338;48.176;11.792;2024-01-30T08:51:01;3.03;;;2.43;;
2656;SDS011;1338;48.176;11.792;2024-01-30T08:53:36;2.57;;;2.37;;
2656;SDS011;1338;48.176;11.792;2024-01-30T08:56:05;2.87;;;2.67;;
2656;SDS011;1338;48.176;11.792;2024-01-30T08:58:37;3.33;;;2.63;;
2656;SDS011;1338;48.176;11.792;2024-01-30T09:01:05;5.40;;;2.40;;
2656;SDS011;1338;48.176;11.792;2024-01-30T09:03:39;2.50;;;2.30;;
2656;SDS011;1338;48.176;11.792;2024-01-30T09:06:10;2.90;;;2.60;;
2656;SDS011;1338;48.176;11.792;2024-01-30T09:08:41;2.53;;;2.30;;
2656;SDS011;1338;48.176;11.792;2024-01-30T09:11:09;3.60;;;2.50;;
2656;SDS011;1338;48.176;11.792;2024-01-30T09:13:38;2.27;;;2.17;;
2656;SDS011;1338;48.176;11.792;2024-01-30T09:16:07;3.20;;;2.60;;
2656;SDS011;1338;48.176;11.792;2024-01-30T09:18:35;2.30;;;2.10;;
2656;SDS011;1338;48.176;11.792;2024-01-30T09:21:07;3.57;;;2.60;;
2656;SDS011;1338;48.176;11.792;2024-01-30T09:23:36;3.43;;;2.83;;
2656;SDS011;1338;48.176;11.792;2024-01-30T09:26:08;8.60;;;2.90;;
2656;SDS011;1338;48.176;11.792;2024-01-30T09:28:36;2.83;;;2.53;;
2656;SDS011;1338;48.176;11.792;2024-01-30T09:31:09;3.53;;;2.83;;
2656;SDS011;1338;48.176;11.792;2024-01-30T09:33:42;2.30;;;2.10;;
2656;SDS011;1338;48.176;11.792;2024-01-30T09:36:14;2.40;;;2.20;;
2656;SDS011;1338;48.176;11.792;2024-01-30T09:38:45;2.80;;;2.60;;
2656;SDS011;1338;48.176;11.792;2024-01-30T09:41:18;3.10;;;2.80;;
2656;SDS011;1338;48.176;11.792;2024-01-30T09:43:47;4.60;;;2.80;;
2656;SDS011;1338;48.176;11.792;2024-01-30T09:46:17;2.80;;;2.60;;
2656;SDS011;1338;48.176;11.792;2024-01-30T09:48:49;3.27;;;3.00;;
2656;SDS011;1338;48.176;11.792;2024-01-30T09:51:19;2.30;;;2.07;;
2656;SDS011;1338;48.176;11.792;2024-01-30T09:53:48;4.13;;;3.73;;
2656;SDS011;1338;48.176;11.792;2024-01-30T09:56:19;2.93;;;2.73;;
2656;SDS011;1338;48.176;11.792;2024-01-30T09:58:53;3.60;;;3.03;;
2656;SDS011;1338;48.176;11.792;2024-01-30T10:01:22;2.83;;;2.60;;
2656;SDS011;1338;48.176;11.792;2024-01-30T10:03:53;2.83;;;2.53;;
2656;SDS011;1338;48.176;11.792;2024-01-30T10:06:28;3.43;;;3.13;;
2656;SDS011;1338;48.176;11.792;2024-01-30T10:08:58;2.70;;;2.50;;
2656;SDS011;1338;48.176;11.792;2024-01-30T10:11:29;4.27;;;2.70;;
2656;SDS011;1338;48.176;11.792;2024-01-30T10:13:58;2.60;;;2.40;;
2656;SDS011;1338;48.176;11.792;2024-01-30T10:16:30;3.13;;;2.50;;
2656;SDS011;1338;48.176;11.792;2024-01-30T10:18:58;4.53;;;2.67;;
2656;SDS011;1338;48.176;11.792;2024-01-30T10:21:27;2.70;;;2.50;;
2656;SDS011;1338;48.176;11.792;2024-01-30T10:23:58;2.93;;;2.47;;
2656;SDS011;1338;48.176;11.792;2024-01-30T10:26:31;3.83;;;3.20;;
2656;SDS011;1338;48.176;11.792;2024-01-30T10:29:01;3.30;;;2.80;;
2656;SDS011;1338;48.176;11.792;2024-01-30T10:31:29;2.73;;;2.50;;
2656;SDS011;1338;48.176;11.792;2024-01-30T10:33:57;4.47;;;3.97;;
2656;SDS011;1338;48.176;11.792;2024-01-30T10:36:41;2.77;;;2.57;;
2656;SDS011;1338;48.176;11.792;2024-01-30T10:39:14;3.33;;;2.93;;
2656;SDS011;1338;48.176;11.792;2024-01-30T10:41:49;3.90;;;3.50;;
2656;SDS011;1338;48.176;11.792;2024-01-30T10:44:22;3.20;;;3.00;;
2656;SDS011;1338;48.176;11.792;2024-01-30T10:46:53;4.90;;;3.27;;
2656;SDS011;1338;48.176;11.792;2024-01-30T10:49:28;3.37;;;3.07;;
2656;SDS011;1338;48.176;11.792;2024-01-30T10:51:58;5.40;;;3.53;;
2656;SDS011;1338;48.176;11.792;2024-01-30T10:54:27;4.00;;;3.47;;
2656;SDS011;1338;48.176;11.792;2024-01-30T10:57:02;4.03;;;3.67;;
2656;SDS011;1338;48.176;11.792;2024-01-30T10:59:33;4.93;;;3.80;;
2656;SDS011;1338;48.176;11.792;2024-01-30T11:02:02;4.10;;;3.40;;
2656;SDS011;1338;48.176;11.792;2024-01-30T11:04:37;3.67;;;3.37;;
2656;SDS011;1338;48.176;11.792;2024-01-30T11:07:13;4.43;;;4.03;;
2656;SDS011;1338;48.176;11.792;2024-01-30T11:09:50;5.50;;;3.90;;
2656;SDS011;1338;48.176;11.792;2024-01-30T11:12:25;3.50;;;2.93;;
2656;SDS011;1338;48.176;11.792;2024-01-30T11:15:05;3.17;;;2.57;;
2656;SDS011;1338;48.176;11.792;2024-01-30T11:17:42;3.70;;;3.07;;
2656;SDS011;1338;48.176;11.792;2024-01-30T11:20:14;3.60;;;3.30;;
2656;SDS011;1338;48.176;11.792;2024-01-30T11:22:51;5.83;;;3.97;;
2656;SDS011;1338;48.176;11.792;2024-01-30T11:25:23;2.87;;;2.53;;
2656;SDS011;1338;48.176;11.792;2024-01-30T11:30:43;3.30;;;3.10;;
2656;SDS011;1338;48.176;11.792;2024-01-30T11:33:26;3.17;;;2.80;;
2656;SDS011;1338;48.176;11.792;2024-01-30T11:36:00;3.00;;;2.70;;
2656;SDS011;1338;48.176;11.792;2024-01-30T11:38:29;3.27;;;2.97;;
2656;SDS011;1338;48.176;11.792;2024-01-30T11:41:12;3.10;;;2.70;;
2656;SDS011;1338;48.176;11.792;2024-01-30T11:43:51;3.33;;;2.80;;
2656;SDS011;1338;48.176;11.792;2024-01-30T11:46:24;4.20;;;2.70;;
2656;SDS011;1338;48.176;11.792;2024-01-30T11:48:54;4.00;;;3.47;;
2656;SDS011;1338;48.176;11.792;2024-01-30T11:51:22;3.40;;;3.10;;
2656;SDS011;1338;48.176;11.792;2024-01-30T11:53:51;3.60;;;2.90;;
2656;SDS011;1338;48.176;11.792;2024-01-30T11:56:21;3.03;;;2.73;;
2656;SDS011;1338;48.176;11.792;2024-01-30T11:58:55;3.33;;;3.03;;
2656;SDS011;1338;48.176;11.792;2024-01-30T12:01:24;3.13;;;2.90;;
2656;SDS011;1338;48.176;11.792;2024-01-30T12:04:02;4.10;;;3.40;;
2656;SDS011;1338;48.176;11.792;2024-01-30T12:06:38;4.73;;;3.23;;
2656;SDS011;1338;48.176;11.792;2024-01-30T12:09:08;3.50;;;3.17;;
2656;SDS011;1338;48.176;11.792;2024-01-30T12:11:43;5.70;;;3.67;;
2656;SDS011;1338;48.176;11.792;2024-01-30T12:14:18;3.87;;;3.50;;
2656;SDS011;1338;48.176;11.792;2024-01-30T12:16:53;5.57;;;3.03;;
2656;SDS011;1338;48.176;11.792;2024-01-30T12:19:22;3.23;;;2.80;;
2656;SDS011;1338;48.176;11.792;2024-01-30T12:21:55;3.63;;;3.17;;
2656;SDS011;1338;48.176;11.792;2024-01-30T12:24:26;4.40;;;3.80;;
2656;SDS011;1338;48.176;11.792;2024-01-30T12:26:56;3.80;;;3.50;;
2656;SDS011;1338;48.176;11.792;2024-01-30T12:29:31;9.47;;;5.43;;
2656;SDS011;1338;48.176;11.792;2024-01-30T12:32:05;5.63;;;4.00;;
2656;SDS011;1338;48.176;11.792;2024-01-30T12:34:39;3.87;;;3.47;;
2656;SDS011;1338;48.176;11.792;2024-01-30T12:37:26;3.97;;;3.57;;
2656;SDS011;1338;48.176;11.792;2024-01-30T12:39:56;4.10;;;3.70;;
2656;SDS011;1338;48.176;11.792;2024-01-30T12:42:26;5.37;;;4.23;;
2656;SDS011;1338;48.176;11.792;2024-01-30T12:44:58;4.67;;;4.23;;
2656;SDS011;1338;48.176;11.792;2024-01-30T12:47:28;5.70;;;5.13;;
2656;SDS011;1338;48.176;11.792;2024-01-30T12:50:04;4.97;;;4.37;;
2656;SDS011;1338;48.176;11.792;2024-01-30T12:52:34;5.67;;;4.70;;
2656;SDS011;1338;48.176;11.792;2024-01-30T12:55:15;4.20;;;3.80;;
2656;SDS011;1338;48.176;11.792;2024-01-30T12:57:44;4.83;;;3.57;;
2656;SDS011;1338;48.176;11.792;2024-01-30T13:00:14;4.97;;;4.57;;
2656;SDS011;1338;48.176;11.792;2024-01-30T13:02:45;4.57;;;4.10;;
2656;SDS011;1338;48.176;11.792;2024-01-30T13:05:13;4.13;;;3.80;;
2656;SDS011;1338;48.176;11.792;2024-01-30T13:07:45;3.67;;;3.10;;
2656;SDS011;1338;48.176;11.792;2024-01-30T13:10:14;3.80;;;3.30;;
2656;SDS011;1338;48.176;11.792;2024-01-30T13:12:45;9.27;;;4.70;;
2656;SDS011;1338;48.176;11.792;2024-01-30T13:15:15;5.80;;;4.40;;
2656;SDS011;1338;48.176;11.792;2024-01-30T13:17:44;5.93;;;4.50;;
2656;SDS011;1338;48.176;11.792;2024-01-30T13:20:14;6.93;;;5.87;;
2656;SDS011;1338;48.176;11.792;2024-01-30T13:22:48;6.20;;;5.70;;
2656;SDS011;1338;48.176;11.792;2024-01-30T13:25:20;8.60;;;5.70;;
2656;SDS011;1338;48.176;11.792;2024-01-30T13:27:48;8.77;;;6.23;;
2656;SDS011;1338;48.176;11.792;2024-01-30T13:30:22;6.43;;;5.80;;
2656;SDS011;1338;48.176;11.792;2024-01-30T13:32:51;6.40;;;5.40;;
2656;SDS011;1338;48.176;11.792;2024-01-30T13:35:21;5.80;;;5.30;;
2656;SDS011;1338;48.176;11.792;2024-01-30T13:37:49;5.83;;;5.33;;
2656;SDS011;1338;48.176;11.792;2024-01-30T13:40:25;6.17;;;5.57;;
2656;SDS011;1338;48.176;11.792;2024-01-30T13:42:55;5.83;;;5.20;;
2656;SDS011;1338;48.176;11.792;2024-01-30T13:45:29;5.50;;;5.10;;
2656;SDS011;1338;48.176;11.792;2024-01-30T13:47:57;4.93;;;4.50;;
2656;SDS011;1338;48.176;11.792;2024-01-30T13:50:26;5.00;;;4.50;;
2656;SDS011;1338;48.176;11.792;2024-01-30T13:52:55;6.13;;;5.40;;
2656;SDS011;1338;48.176;11.792;2024-01-30T13:55:32;5.67;;;5.17;;
2656;SDS011;1338;48.176;11.792;2024-01-30T13:58:01;7.33;;;6.63;;
2656;SDS011;1338;48.176;11.792;2024-01-30T14:00:33;8.90;;;6.53;;
2656;SDS011;1338;48.176;11.792;2024-01-30T14:03:02;11.70;;;6.97;;
2656;SDS011;1338;48.176;11.792;2024-01-30T14:05:32;7.97;;;7.20;;
2656;SDS011;1338;48.176;11.792;2024-01-30T14:08:03;8.30;;;6.70;;
2656;SDS011;1338;48.176;11.792;2024-01-30T14:10:34;5.40;;;4.30;;
2656;SDS011;1338;48.176;11.792;2024-01-30T14:13:04;8.50;;;6.40;;
2656;SDS011;1338;48.176;11.792;2024-01-30T14:15:38;7.10;;;6.40;;
2656;SDS011;1338;48.176;11.792;2024-01-30T14:18:07;6.90;;;6.23;;
2656;SDS011;1338;48.176;11.792;2024-01-30T14:20:35;8.43;;;7.03;;
2656;SDS011;1338;48.176;11.792;2024-01-30T14:23:06;8.40;;;6.70;;
2656;SDS011;1338;48.176;11.792;2024-01-30T14:25:36;5.90;;;4.40;;
2656;SDS011;1338;48.176;11.792;2024-01-30T14:28:05;6.60;;;5.57;;
2656;SDS011;1338;48.176;11.792;2024-01-30T14:30:39;4.33;;;3.93;;
2656;SDS011;1338;48.176;11.792;2024-01-30T14:33:08;6.60;;;5.70;;
2656;SDS011;1338;48.176;11.792;2024-01-30T14:35:37;8.37;;;7.40;;
2656;SDS011;1338;48.176;11.792;2024-01-30T14:38:05;7.67;;;6.97;;
2656;SDS011;1338;48.176;11.792;2024-01-30T14:40:37;7.00;;;6.30;;
2656;SDS011;1338;48.176;11.792;2024-01-30T14:43:06;6.57;;;5.97;;
2656;SDS011;1338;48.176;11.792;2024-01-30T14:45:36;7.10;;;6.50;;
2656;SDS011;1338;48.176;11.792;2024-01-30T14:48:08;7.03;;;5.67;;
2656;SDS011;1338;48.176;11.792;2024-01-30T14:50:37;7.37;;;6.77;;
2656;SDS011;1338;48.176;11.792;2024-01-30T14:53:06;6.60;;;6.10;;
2656;SDS011;1338;48.176;11.792;2024-01-30T14:55:34;7.80;;;7.10;;
2656;SDS011;1338;48.176;11.792;2024-01-30T14:58:05;6.10;;;5.50;;
2656;SDS011;1338;48.176;11.792;2024-01-30T15:00:51;6.37;;;5.77;;
2656;SDS011;1338;48.176;11.792;2024-01-30T15:03:48;13.50;;;6.50;;
2656;SDS011;1338;48.176;11.792;2024-01-30T15:06:18;6.20;;;5.70;;
2656;SDS011;1338;48.176;11.792;2024-01-30T15:08:55;8.20;;;6.25;;
2656;SDS011;1338;48.176;11.792;2024-01-30T15:11:28;4.30;;;3.97;;
2656;SDS011;1338;48.176;11.792;2024-01-30T15:14:00;4.37;;;3.97;;
2656;SDS011;1338;48.176;11.792;2024-01-30T15:16:31;5.17;;;4.40;;
2656;SDS011;1338;48.176;11.792;2024-01-30T15:19:00;5.70;;;5.20;;
2656;SDS011;1338;48.176;11.792;2024-01-30T15:21:31;7.37;;;6.67;;
2656;SDS011;1338;48.176;11.792;2024-01-30T15:24:01;7.20;;;6.10;;